createdAt,value
2022-09-05T00:00:20.062Z,271
2022-09-05T00:00:51.272Z,271
2022-09-05T00:01:27.315Z,271
2022-09-05T00:01:40.213Z,271
2022-09-05T00:02:10.368Z,271
2022-09-05T00:02:34.351Z,271
2022-09-05T00:02:58.419Z,271
2022-09-05T00:03:30.564Z,271
2022-09-05T00:04:08.366Z,271
2022-09-05T00:04:34.316Z,271
2022-09-05T00:05:06.417Z,271
2022-09-05T00:05:35.120Z,271
2022-09-05T00:06:02.345Z,271
2022-09-05T00:06:26.343Z,271
2022-09-05T00:06:58.476Z,271
2022-09-05T00:07:43.283Z,271
2022-09-05T00:08:02.422Z,271
2022-09-05T00:08:34.334Z,271
2022-09-05T00:09:06.481Z,271
2022-09-05T00:09:34.259Z,271
2022-09-05T00:09:54.267Z,271
2022-09-05T00:10:27.297Z,271
2022-09-05T00:11:39.767Z,271
2022-09-05T00:11:47.099Z,271
2022-09-05T00:12:18.292Z,271
2022-09-05T00:12:51.138Z,271
2022-09-05T00:13:22.425Z,271
2022-09-05T00:13:40.978Z,271
2022-09-05T00:14:11.008Z,271
2022-09-05T00:15:15.201Z,271
2022-09-05T00:15:30.624Z,271
2022-09-05T00:16:03.485Z,271
2022-09-05T00:16:34.201Z,271
2022-09-05T00:17:06.277Z,271
2022-09-05T00:17:36.989Z,271
2022-09-05T00:22:49.914Z,271
2022-09-05T00:25:07.179Z,271
2022-09-05T00:25:31.067Z,271
2022-09-05T00:25:40.500Z,271
2022-09-05T00:26:12.290Z,271
2022-09-05T00:26:36.919Z,271
2022-09-05T00:26:58.322Z,271
2022-09-05T00:27:30.408Z,271
2022-09-05T00:28:25.335Z,271
2022-09-05T00:28:34.169Z,271
2022-09-05T00:29:06.257Z,271
2022-09-05T00:31:07.858Z,271
2022-09-05T00:32:02.416Z,271
2022-09-05T00:32:35.102Z,271
2022-09-05T00:33:16.851Z,271
2022-09-05T00:33:34.169Z,271
2022-09-05T00:33:54.363Z,271
2022-09-05T00:34:26.402Z,271
2022-09-05T00:34:58.974Z,271
2022-09-05T00:35:30.388Z,271
2022-09-05T00:36:03.322Z,271
2022-09-05T00:36:36.464Z,271
2022-09-05T00:37:07.521Z,271
2022-09-05T00:37:35.587Z,271
2022-09-05T00:37:57.380Z,271
2022-09-05T00:38:37.091Z,271
2022-09-05T00:38:58.400Z,271
2022-09-05T00:39:31.104Z,271
2022-09-05T00:40:17.800Z,271
2022-09-05T00:40:35.171Z,271
2022-09-05T00:41:06.318Z,271
2022-09-05T00:41:34.633Z,271
2022-09-05T00:41:54.378Z,271
2022-09-05T00:42:28.038Z,271
2022-09-05T00:42:58.982Z,271
2022-09-05T00:43:30.272Z,271
2022-09-05T00:44:02.511Z,271
2022-09-05T00:44:35.561Z,271
2022-09-05T00:45:06.537Z,271
2022-09-05T00:45:34.307Z,271
2022-09-05T00:45:54.799Z,271
2022-09-05T00:46:27.883Z,271
2022-09-05T00:46:58.603Z,271
2022-09-05T00:47:30.324Z,271
2022-09-05T00:48:03.341Z,271
2022-09-05T00:48:34.246Z,271
2022-09-05T00:49:07.048Z,271
2022-09-05T00:49:35.591Z,271
2022-09-05T00:49:54.362Z,271
2022-09-05T00:50:27.314Z,271
2022-09-05T00:50:59.539Z,271
2022-09-05T00:51:34.942Z,271
2022-09-05T00:52:03.271Z,271
2022-09-05T00:52:34.327Z,271
2022-09-05T00:53:07.726Z,271
2022-09-05T00:53:34.302Z,271
2022-09-05T00:53:56.726Z,271
2022-09-05T00:54:40.596Z,271
2022-09-05T00:54:58.349Z,271
2022-09-05T00:55:31.248Z,271
2022-09-05T00:56:03.406Z,271
2022-09-05T00:56:34.274Z,271
2022-09-05T00:57:07.296Z,271
2022-09-05T00:57:34.481Z,271
2022-09-05T00:57:55.843Z,271
2022-09-05T00:58:27.262Z,271
2022-09-05T00:58:59.369Z,271
2022-09-05T00:59:31.130Z,271
2022-09-05T01:00:03.215Z,271
2022-09-05T01:00:34.232Z,271
2022-09-05T01:01:10.751Z,271
2022-09-05T01:01:34.774Z,271
2022-09-05T01:01:55.360Z,271
2022-09-05T01:02:26.403Z,271
2022-09-05T01:03:00.299Z,271
2022-09-05T01:03:30.509Z,271
2022-09-05T01:04:05.047Z,271
2022-09-05T01:04:34.176Z,271
2022-09-05T01:05:06.470Z,271
2022-09-05T01:05:35.777Z,271
2022-09-05T01:05:54.504Z,271
2022-09-05T01:06:26.328Z,271
2022-09-05T01:06:58.318Z,271
2022-09-05T01:07:30.281Z,271
2022-09-05T01:08:04.304Z,271
2022-09-05T01:08:34.480Z,271
2022-09-05T01:09:08.579Z,271
2022-09-05T01:09:35.523Z,271
2022-09-05T01:09:55.228Z,271
2022-09-05T01:10:27.404Z,271
2022-09-05T01:10:59.078Z,271
2022-09-05T01:11:31.149Z,271
2022-09-05T01:12:03.110Z,271
2022-09-05T01:12:34.506Z,271
2022-09-05T01:13:07.887Z,271
2022-09-05T01:13:34.178Z,271
2022-09-05T01:13:55.175Z,271
2022-09-05T01:14:26.470Z,271
2022-09-05T01:14:58.373Z,271
2022-09-05T01:15:32.508Z,271
2022-09-05T01:16:02.362Z,271
2022-09-05T01:16:35.180Z,271
2022-09-05T01:17:06.300Z,271
2022-09-05T01:17:34.299Z,271
2022-09-05T01:17:55.183Z,271
2022-09-05T01:18:27.001Z,271
2022-09-05T01:18:58.291Z,271
2022-09-05T01:19:31.092Z,271
2022-09-05T01:20:18.567Z,271
2022-09-05T01:20:38.413Z,271
2022-09-05T01:21:06.283Z,271
2022-09-05T01:21:34.219Z,271
2022-09-05T01:22:10.411Z,271
2022-09-05T01:22:34.249Z,271
2022-09-05T01:22:59.007Z,271
2022-09-05T01:23:33.417Z,271
2022-09-05T01:24:02.370Z,271
2022-09-05T01:24:35.075Z,271
2022-09-05T01:25:06.484Z,271
2022-09-05T01:25:37.328Z,271
2022-09-05T01:26:11.230Z,271
2022-09-05T01:26:34.200Z,271
2022-09-05T01:26:59.108Z,271
2022-09-05T01:27:33.820Z,271
2022-09-05T01:29:18.543Z,271
2022-09-05T01:29:22.354Z,271
2022-09-05T01:29:39.379Z,271
2022-09-05T01:30:11.396Z,271
2022-09-05T01:30:34.301Z,271
2022-09-05T01:30:59.395Z,271
2022-09-05T01:31:30.418Z,271
2022-09-05T01:32:02.253Z,271
2022-09-05T01:32:35.758Z,271
2022-09-05T01:33:06.422Z,271
2022-09-05T01:33:34.275Z,271
2022-09-05T01:33:55.057Z,271
2022-09-05T01:34:31.509Z,271
2022-09-05T01:34:58.267Z,271
2022-09-05T01:35:31.635Z,271
2022-09-05T01:36:04.360Z,271
2022-09-05T01:36:34.248Z,271
2022-09-05T01:37:06.264Z,271
2022-09-05T01:37:34.382Z,271
2022-09-05T01:37:55.021Z,271
2022-09-05T01:38:26.334Z,271
2022-09-05T01:40:12.410Z,271
2022-09-05T01:40:18.568Z,271
2022-09-05T01:40:56.665Z,271
2022-09-05T01:51:29.325Z,271
2022-09-05T01:51:35.040Z,271
2022-09-05T01:52:02.992Z,271
2022-09-05T01:52:34.694Z,271
2022-09-05T01:53:06.897Z,271
2022-09-05T01:53:35.268Z,271
2022-09-05T01:53:55.317Z,271
2022-09-05T01:54:28.317Z,271
2022-09-05T01:54:58.272Z,271
2022-09-05T01:55:31.184Z,271
2022-09-05T01:56:04.555Z,271
2022-09-05T01:56:37.078Z,271
2022-09-05T01:57:08.477Z,271
2022-09-05T01:57:35.137Z,271
2022-09-05T01:57:54.252Z,271
2022-09-05T01:58:26.253Z,271
2022-09-05T01:58:59.218Z,271
2022-09-05T01:59:30.320Z,271
2022-09-05T02:00:02.534Z,271
2022-09-05T02:00:34.187Z,271
2022-09-05T02:01:25.434Z,271
2022-09-05T02:01:34.365Z,271
2022-09-05T02:01:54.387Z,271
2022-09-05T02:02:27.033Z,271
2022-09-05T02:02:59.292Z,271
2022-09-05T02:03:30.827Z,271
2022-09-05T02:04:07.198Z,271
2022-09-05T02:04:34.185Z,271
2022-09-05T02:05:06.340Z,271
2022-09-05T02:05:48.710Z,271
2022-09-05T02:05:56.239Z,271
2022-09-05T02:06:26.329Z,271
2022-09-05T02:07:19.967Z,271
2022-09-05T02:07:35.088Z,271
2022-09-05T02:08:02.290Z,263
2022-09-05T02:08:35.515Z,259
2022-09-05T02:09:06.224Z,259
2022-09-05T02:09:34.797Z,259
2022-09-05T02:09:58.216Z,259
2022-09-05T02:10:27.312Z,259
2022-09-05T02:10:58.321Z,259
2022-09-05T02:11:35.805Z,259
2022-09-05T02:12:02.231Z,259
2022-09-05T02:12:34.199Z,259
2022-09-05T02:13:06.326Z,259
2022-09-05T02:13:35.228Z,259
2022-09-05T02:13:54.976Z,259
2022-09-05T02:14:33.620Z,259
2022-09-05T02:14:59.202Z,259
2022-09-05T02:15:30.563Z,259
2022-09-05T02:16:03.133Z,259
2022-09-05T02:16:34.994Z,259
2022-09-05T02:17:06.250Z,259
2022-09-05T02:17:50.993Z,259
2022-09-05T02:17:55.027Z,259
2022-09-05T02:18:26.225Z,259
2022-09-05T02:18:58.985Z,259
2022-09-05T02:19:30.213Z,259
2022-09-05T02:20:04.066Z,259
2022-09-05T02:20:36.122Z,259
2022-09-05T02:21:06.924Z,259
2022-09-05T02:21:40.663Z,259
2022-09-05T02:22:10.332Z,259
2022-09-05T02:22:35.782Z,259
2022-09-05T02:22:58.347Z,259
2022-09-05T02:23:41.017Z,259
2022-09-05T02:24:02.942Z,259
2022-09-05T02:24:36.466Z,259
2022-09-05T02:25:33.862Z,259
2022-09-05T02:26:10.209Z,259
2022-09-05T02:26:35.381Z,259
2022-09-05T02:27:00.748Z,259
2022-09-05T02:28:04.360Z,259
2022-09-05T02:28:19.015Z,259
2022-09-05T02:28:50.248Z,259
2022-09-05T02:29:28.878Z,259
2022-09-05T02:29:40.029Z,259
2022-09-05T02:30:10.347Z,259
2022-09-05T02:30:34.334Z,259
2022-09-05T02:31:18.817Z,259
2022-09-05T02:31:34.411Z,259
2022-09-05T02:32:02.966Z,259
2022-09-05T02:32:34.269Z,259
2022-09-05T02:33:06.253Z,259
2022-09-05T02:33:34.205Z,259
2022-09-05T02:34:01.678Z,259
2022-09-05T02:34:27.393Z,259
2022-09-05T02:34:59.159Z,259
2022-09-05T02:35:31.286Z,259
2022-09-05T02:36:02.270Z,259
2022-09-05T02:36:35.293Z,259
2022-09-05T02:37:06.299Z,259
2022-09-05T02:38:38.066Z,259
2022-09-05T02:45:25.525Z,259
2022-09-05T02:45:40.259Z,259
2022-09-05T02:46:10.537Z,259
2022-09-05T02:46:35.859Z,259
2022-09-05T02:46:59.172Z,259
2022-09-05T02:47:30.824Z,259
2022-09-05T02:48:08.303Z,259
2022-09-05T02:48:34.280Z,259
2022-09-05T02:49:06.385Z,259
2022-09-05T02:53:41.265Z,259
2022-09-05T02:58:06.097Z,259
2022-09-05T02:58:26.370Z,259
2022-09-05T02:59:09.642Z,259
2022-09-05T02:59:36.697Z,259
2022-09-05T03:00:02.442Z,259
2022-09-05T03:00:34.797Z,259
2022-09-05T03:01:06.331Z,259
2022-09-05T03:01:35.664Z,259
2022-09-05T03:01:54.365Z,259
2022-09-05T03:02:27.286Z,259
2022-09-05T03:02:58.534Z,259
2022-09-05T03:03:31.133Z,259
2022-09-05T03:04:04.360Z,259
2022-09-05T03:04:34.302Z,259
2022-09-05T03:05:06.401Z,259
2022-09-05T03:05:34.359Z,259
2022-09-05T03:05:55.005Z,259
2022-09-05T03:06:34.307Z,259
2022-09-05T03:06:58.400Z,259
2022-09-05T03:07:31.305Z,191
2022-09-05T03:08:03.420Z,191
2022-09-05T03:08:34.287Z,191
2022-09-05T03:09:16.572Z,191
2022-09-05T03:09:34.880Z,191
2022-09-05T03:09:54.198Z,191
2022-09-05T03:10:44.347Z,191
2022-09-05T03:10:58.334Z,191
2022-09-05T03:11:30.939Z,191
2022-09-05T03:12:21.712Z,204
2022-09-05T03:12:36.075Z,204
2022-09-05T03:13:06.295Z,204
2022-09-05T03:13:34.331Z,204
2022-09-05T03:13:55.888Z,204
2022-09-05T03:14:26.230Z,204
2022-09-05T03:14:59.181Z,204
2022-09-05T03:15:31.129Z,204
2022-09-05T03:16:04.721Z,204
2022-09-05T03:16:46.907Z,204
2022-09-05T03:17:06.266Z,204
2022-09-05T03:17:34.182Z,204
2022-09-05T03:17:55.364Z,204
2022-09-05T03:18:26.192Z,204
2022-09-05T03:18:59.807Z,204
2022-09-05T03:19:30.182Z,204
2022-09-05T03:20:02.592Z,204
2022-09-05T03:20:34.307Z,204
2022-09-05T03:21:09.145Z,204
2022-09-05T03:21:34.294Z,204
2022-09-05T03:21:54.233Z,204
2022-09-05T03:22:28.893Z,204
2022-09-05T03:22:58.477Z,204
2022-09-05T03:23:33.203Z,204
2022-09-05T03:24:03.168Z,204
2022-09-05T03:24:34.200Z,204
2022-09-05T03:25:06.450Z,204
2022-09-05T03:25:34.297Z,204
2022-09-05T03:25:54.294Z,204
2022-09-05T03:26:28.039Z,204
2022-09-05T03:27:00.269Z,204
2022-09-05T03:27:30.823Z,204
2022-09-05T03:28:02.212Z,204
2022-09-05T03:28:34.218Z,204
2022-09-05T03:29:06.188Z,204
2022-09-05T03:29:34.213Z,204
2022-09-05T03:29:58.753Z,204
2022-09-05T03:30:27.631Z,204
2022-09-05T03:30:59.059Z,204
2022-09-05T03:31:30.211Z,204
2022-09-05T03:32:02.257Z,204
2022-09-05T03:32:35.251Z,204
2022-09-05T03:33:06.179Z,204
2022-09-05T03:33:35.092Z,204
2022-09-05T03:33:54.337Z,204
2022-09-05T03:34:27.713Z,204
2022-09-05T03:35:02.366Z,204
2022-09-05T03:35:32.432Z,204
2022-09-05T03:36:02.270Z,204
2022-09-05T03:36:34.265Z,204
2022-09-05T03:37:06.271Z,204
2022-09-05T03:37:34.309Z,204
2022-09-05T03:37:54.918Z,204
2022-09-05T03:38:26.316Z,204
2022-09-05T03:38:59.270Z,204
2022-09-05T03:39:30.390Z,204
2022-09-05T03:40:15.259Z,204
2022-09-05T03:40:34.198Z,204
2022-09-05T03:41:06.226Z,204
2022-09-05T03:41:40.217Z,204
2022-09-05T03:41:54.339Z,204
2022-09-05T03:42:30.799Z,204
2022-09-05T03:42:58.172Z,204
2022-09-05T03:43:31.065Z,204
2022-09-05T03:44:02.471Z,204
2022-09-05T03:44:36.045Z,204
2022-09-05T03:45:06.426Z,204
2022-09-05T03:45:35.006Z,204
2022-09-05T03:45:54.401Z,204
2022-09-05T03:46:27.046Z,204
2022-09-05T03:46:58.201Z,203
2022-09-05T03:47:30.223Z,203
2022-09-05T03:48:08.418Z,203
2022-09-05T03:49:46.859Z,203
2022-09-05T03:57:16.236Z,204
2022-09-05T03:57:41.459Z,204
2022-09-05T03:57:55.828Z,204
2022-09-05T03:58:41.907Z,204
2022-09-05T03:59:00.220Z,204
2022-09-05T03:59:30.281Z,204
2022-09-05T04:00:02.476Z,204
2022-09-05T04:00:36.294Z,204
2022-09-05T04:01:30.688Z,204
2022-09-05T04:08:09.672Z,204
2022-09-05T04:08:42.399Z,204
2022-09-05T04:09:06.310Z,204
2022-09-05T04:09:49.994Z,204
2022-09-05T04:09:54.963Z,204
2022-09-05T04:10:26.492Z,204
2022-09-05T04:11:00.144Z,204
2022-09-05T04:11:30.200Z,204
2022-09-05T04:12:03.521Z,204
2022-09-05T04:12:34.257Z,204
2022-09-05T04:13:06.903Z,204
2022-09-05T04:13:34.295Z,204
2022-09-05T04:13:54.186Z,204
2022-09-05T04:14:27.600Z,204
2022-09-05T04:14:58.273Z,204
2022-09-05T04:15:31.917Z,204
2022-09-05T04:16:02.204Z,204
2022-09-05T04:16:34.298Z,204
2022-09-05T04:17:08.605Z,204
2022-09-05T04:17:34.297Z,204
2022-09-05T04:17:54.899Z,204
2022-09-05T04:18:33.004Z,204
2022-09-05T04:18:58.421Z,204
2022-09-05T04:19:30.231Z,204
2022-09-05T04:20:02.396Z,204
2022-09-05T04:20:37.317Z,204
2022-09-05T04:21:06.179Z,204
2022-09-05T04:21:34.212Z,204
2022-09-05T04:21:56.083Z,204
2022-09-05T04:22:26.974Z,204
2022-09-05T04:22:58.516Z,204
2022-09-05T04:23:30.163Z,204
2022-09-05T04:24:03.202Z,204
2022-09-05T04:24:34.322Z,204
2022-09-05T04:25:06.971Z,204
2022-09-05T04:25:34.333Z,204
2022-09-05T04:26:01.437Z,204
2022-09-05T04:26:26.786Z,204
2022-09-05T04:26:58.942Z,204
2022-09-05T04:27:30.227Z,204
2022-09-05T04:28:02.183Z,204
2022-09-05T04:28:36.567Z,204
2022-09-05T04:29:06.182Z,204
2022-09-05T04:29:35.128Z,204
2022-09-05T04:29:54.456Z,204
2022-09-05T04:30:39.499Z,204
2022-09-05T04:30:58.571Z,204
2022-09-05T04:31:30.236Z,204
2022-09-05T04:32:18.379Z,204
2022-09-05T04:32:34.312Z,204
2022-09-05T04:33:06.149Z,204
2022-09-05T04:33:36.344Z,204
2022-09-05T04:33:54.950Z,204
2022-09-05T04:34:26.264Z,204
2022-09-05T04:34:58.278Z,204
2022-09-05T04:35:30.359Z,204
2022-09-05T04:36:08.837Z,204
2022-09-05T04:36:34.297Z,204
2022-09-05T04:37:06.319Z,204
2022-09-05T04:37:48.067Z,204
2022-09-05T04:37:54.314Z,204
2022-09-05T04:38:26.154Z,204
2022-09-05T04:38:59.779Z,204
2022-09-05T04:39:30.580Z,204
2022-09-05T04:40:03.670Z,204
2022-09-05T04:40:34.244Z,204
2022-09-05T04:41:11.469Z,204
2022-09-05T04:41:36.564Z,204
2022-09-05T04:41:54.279Z,204
2022-09-05T04:42:26.365Z,204
2022-09-05T04:42:58.486Z,204
2022-09-05T04:43:30.233Z,204
2022-09-05T04:44:04.040Z,204
2022-09-05T04:44:36.078Z,204
2022-09-05T04:45:07.353Z,204
2022-09-05T04:45:34.561Z,204
2022-09-05T04:45:56.382Z,204
2022-09-05T04:46:26.299Z,204
2022-09-05T04:46:58.923Z,204
2022-09-05T04:47:30.880Z,204
2022-09-05T04:48:02.929Z,204
2022-09-05T04:48:35.453Z,204
2022-09-05T04:49:07.054Z,204
2022-09-05T04:49:34.350Z,204
2022-09-05T04:49:57.169Z,204
2022-09-05T04:50:26.343Z,204
2022-09-05T04:51:00.887Z,204
2022-09-05T04:51:30.164Z,204
2022-09-05T04:52:02.185Z,204
2022-09-05T04:52:35.017Z,204
2022-09-05T04:53:06.480Z,204
2022-09-05T04:53:36.514Z,204
2022-09-05T04:53:54.206Z,204
2022-09-05T04:54:29.893Z,204
2022-09-05T04:54:58.324Z,204
2022-09-05T04:55:31.571Z,204
2022-09-05T04:56:02.487Z,204
2022-09-05T04:56:34.396Z,204
2022-09-05T04:57:11.783Z,204
2022-09-05T04:57:34.317Z,204
2022-09-05T04:57:54.627Z,204
2022-09-05T04:58:39.168Z,204
2022-09-05T05:05:58.314Z,204
2022-09-05T05:06:45.603Z,204
2022-09-05T05:07:07.531Z,204
2022-09-05T05:07:30.577Z,204
2022-09-05T05:08:04.151Z,204
2022-09-05T05:08:39.160Z,204
2022-09-05T05:09:07.708Z,204
2022-09-05T05:09:35.358Z,204
2022-09-05T05:09:58.329Z,204
2022-09-05T05:17:55.746Z,204
2022-09-05T05:18:41.136Z,204
2022-09-05T05:19:06.012Z,204
2022-09-05T05:19:31.081Z,204
2022-09-05T05:20:41.657Z,204
2022-09-05T05:20:51.038Z,204
2022-09-05T05:21:22.374Z,204
2022-09-05T05:21:39.455Z,204
2022-09-05T05:22:10.313Z,204
2022-09-05T05:22:34.402Z,204
2022-09-05T05:22:59.990Z,203
2022-09-05T05:23:30.184Z,204
2022-09-05T05:24:03.413Z,204
2022-09-05T05:24:34.542Z,204
2022-09-05T05:25:06.375Z,204
2022-09-05T05:25:35.287Z,204
2022-09-05T05:25:54.343Z,204
2022-09-05T05:26:27.008Z,204
2022-09-05T05:26:58.376Z,204
2022-09-05T05:27:30.870Z,204
2022-09-05T05:28:10.321Z,204
2022-09-05T05:28:34.516Z,204
2022-09-05T05:29:07.064Z,203
2022-09-05T05:29:34.432Z,203
2022-09-05T05:29:54.242Z,203
2022-09-05T05:30:27.393Z,204
2022-09-05T05:31:01.472Z,204
2022-09-05T05:31:30.377Z,203
2022-09-05T05:32:03.239Z,204
2022-09-05T05:32:45.842Z,204
2022-09-05T05:33:07.488Z,204
2022-09-05T05:33:34.421Z,204
2022-09-05T05:33:54.404Z,204
2022-09-05T05:34:26.912Z,204
2022-09-05T05:34:58.467Z,204
2022-09-05T05:35:31.223Z,204
2022-09-05T05:36:02.383Z,204
2022-09-05T05:36:37.099Z,204
2022-09-05T05:37:06.205Z,204
2022-09-05T05:37:34.635Z,204
2022-09-05T05:38:10.270Z,204
2022-09-05T05:38:35.405Z,203
2022-09-05T05:39:00.009Z,203
2022-09-05T05:39:30.304Z,203
2022-09-05T05:40:02.701Z,204
2022-09-05T05:40:41.302Z,203
2022-09-05T05:41:06.527Z,203
2022-09-05T05:41:35.974Z,203
2022-09-05T05:41:54.318Z,203
2022-09-05T05:42:27.776Z,203
2022-09-05T05:42:59.157Z,203
2022-09-05T05:43:30.275Z,203
2022-09-05T05:44:02.347Z,203
2022-09-05T05:44:35.345Z,203
2022-09-05T05:45:06.544Z,203
2022-09-05T05:45:34.465Z,203
2022-09-05T05:45:54.380Z,203
2022-09-05T05:46:26.255Z,203
2022-09-05T05:46:58.464Z,203
2022-09-05T05:47:32.269Z,203
2022-09-05T05:48:02.232Z,203
2022-09-05T05:48:34.274Z,203
2022-09-05T05:49:06.357Z,203
2022-09-05T05:49:35.204Z,203
2022-09-05T05:49:54.321Z,203
2022-09-05T05:50:31.225Z,203
2022-09-05T05:50:58.262Z,203
2022-09-05T05:51:34.669Z,203
2022-09-05T05:52:19.307Z,203
2022-09-05T05:52:51.025Z,204
2022-09-05T05:53:33.429Z,203
2022-09-05T05:53:56.750Z,203
2022-09-05T05:54:27.111Z,203
2022-09-05T05:55:48.855Z,203
2022-09-05T05:56:02.399Z,203
2022-09-05T05:56:35.722Z,203
2022-09-05T05:57:14.758Z,203
2022-09-05T05:57:34.465Z,204
2022-09-05T05:57:54.381Z,204
2022-09-05T05:58:26.490Z,203
2022-09-05T05:58:58.212Z,204
2022-09-05T05:59:30.234Z,203
2022-09-05T06:00:02.480Z,203
2022-09-05T06:00:34.415Z,203
2022-09-05T06:01:09.368Z,203
2022-09-05T06:01:37.795Z,203
2022-09-05T06:01:55.415Z,203
2022-09-05T06:02:27.591Z,203
2022-09-05T06:03:24.621Z,203
2022-09-05T06:03:30.459Z,203
2022-09-05T06:04:02.397Z,203
2022-09-05T06:04:34.326Z,203
2022-09-05T06:05:06.511Z,203
2022-09-05T06:05:34.516Z,203
2022-09-05T06:05:54.333Z,203
2022-09-05T06:06:27.033Z,203
2022-09-05T06:06:58.282Z,203
2022-09-05T06:07:40.752Z,203
2022-09-05T06:14:52.969Z,203
2022-09-05T06:15:22.405Z,203
2022-09-05T06:15:36.082Z,203
2022-09-05T06:16:06.535Z,203
2022-09-05T06:16:35.519Z,203
2022-09-05T06:17:06.967Z,203
2022-09-05T06:17:34.452Z,203
2022-09-05T06:17:54.846Z,203
2022-09-05T06:18:26.265Z,203
2022-09-05T06:18:59.202Z,203
2022-09-05T06:19:51.817Z,203
2022-09-05T06:22:05.954Z,203
2022-09-05T06:22:26.197Z,203
2022-09-05T06:22:59.909Z,203
2022-09-05T06:23:39.326Z,203
2022-09-05T06:24:03.183Z,203
2022-09-05T06:24:34.238Z,203
2022-09-05T06:25:16.850Z,203
2022-09-05T06:25:35.276Z,203
2022-09-05T06:25:54.730Z,203
2022-09-05T06:26:26.365Z,203
2022-09-05T06:26:58.267Z,203
2022-09-05T06:27:31.101Z,203
2022-09-05T06:28:18.427Z,203
2022-09-05T06:28:34.337Z,203
2022-09-05T06:29:06.330Z,203
2022-09-05T06:29:38.291Z,203
2022-09-05T06:29:56.174Z,203
2022-09-05T06:30:26.536Z,203
2022-09-05T06:31:30.486Z,203
2022-09-05T06:31:34.495Z,203
2022-09-05T06:32:02.269Z,203
2022-09-05T06:32:35.902Z,203
2022-09-05T06:33:06.201Z,203
2022-09-05T06:33:35.649Z,203
2022-09-05T06:34:17.061Z,203
2022-09-05T06:34:42.339Z,203
2022-09-05T06:35:14.462Z,203
2022-09-05T06:35:34.405Z,203
2022-09-05T06:36:04.221Z,203
2022-09-05T06:36:34.342Z,203
2022-09-05T06:37:07.159Z,203
2022-09-05T06:37:35.088Z,203
2022-09-05T06:37:54.244Z,203
2022-09-05T06:38:26.284Z,203
2022-09-05T06:38:58.310Z,203
2022-09-05T06:39:30.641Z,203
2022-09-05T06:40:03.426Z,203
2022-09-05T06:40:34.701Z,203
2022-09-05T06:41:07.125Z,203
2022-09-05T06:41:34.404Z,203
2022-09-05T06:41:55.545Z,203
2022-09-05T06:42:30.672Z,203
2022-09-05T06:42:59.122Z,203
2022-09-05T06:43:30.385Z,203
2022-09-05T06:44:02.548Z,203
2022-09-05T06:44:34.193Z,203
2022-09-05T06:45:06.480Z,203
2022-09-05T06:45:34.335Z,203
2022-09-05T06:45:58.512Z,203
2022-09-05T06:47:21.964Z,203
2022-09-05T06:47:34.081Z,203
2022-09-05T06:48:02.408Z,203
2022-09-05T06:48:47.017Z,203
2022-09-05T06:49:38.692Z,203
2022-09-05T06:49:55.169Z,203
2022-09-05T06:50:28.236Z,203
2022-09-05T06:51:08.429Z,203
2022-09-05T06:51:31.071Z,203
2022-09-05T06:52:17.923Z,203
2022-09-05T06:52:36.888Z,203
2022-09-05T06:53:19.699Z,203
2022-09-05T06:53:34.794Z,203
2022-09-05T06:53:55.928Z,203
2022-09-05T06:54:26.267Z,203
2022-09-05T06:54:59.813Z,203
2022-09-05T06:55:31.350Z,203
2022-09-05T06:56:03.154Z,203
2022-09-05T06:56:35.297Z,203
2022-09-05T06:57:06.342Z,203
2022-09-05T06:57:34.385Z,203
2022-09-05T06:57:54.227Z,203
2022-09-05T06:58:26.844Z,203
2022-09-05T06:58:58.346Z,203
2022-09-05T06:59:31.181Z,203
2022-09-05T07:00:03.312Z,203
2022-09-05T07:00:35.278Z,203
2022-09-05T07:01:08.787Z,203
2022-09-05T07:01:55.231Z,203
2022-09-05T07:02:11.806Z,203
2022-09-05T07:02:59.219Z,203
2022-09-05T07:03:14.303Z,203
2022-09-05T07:03:34.419Z,203
2022-09-05T07:04:18.342Z,203
2022-09-05T07:05:44.487Z,203
2022-09-05T07:05:57.607Z,203
2022-09-05T07:06:40.040Z,203
2022-09-05T07:07:17.006Z,203
2022-09-05T07:07:35.131Z,203
2022-09-05T07:08:09.337Z,203
2022-09-05T07:08:38.926Z,203
2022-09-05T07:09:08.469Z,203
2022-09-05T07:09:36.808Z,203
2022-09-05T07:09:55.383Z,203
2022-09-05T07:10:38.565Z,203
2022-09-05T07:11:11.284Z,203
2022-09-05T07:11:31.227Z,203
2022-09-05T07:12:02.162Z,203
2022-09-05T07:12:34.328Z,203
2022-09-05T07:13:07.292Z,203
2022-09-05T07:13:34.384Z,203
2022-09-05T07:13:54.540Z,203
2022-09-05T07:14:26.893Z,203
2022-09-05T07:14:58.403Z,203
2022-09-05T07:15:30.470Z,203
2022-09-05T07:16:02.520Z,203
2022-09-05T07:16:37.868Z,203
2022-09-05T07:17:06.633Z,203
2022-09-05T07:17:48.319Z,203
2022-09-05T07:18:12.038Z,203
2022-09-05T07:18:34.645Z,203
2022-09-05T07:19:03.039Z,203
2022-09-05T07:19:30.305Z,203
2022-09-05T07:20:02.494Z,203
2022-09-05T07:20:34.219Z,202
2022-09-05T07:21:26.464Z,202
2022-09-05T07:21:40.451Z,202
2022-09-05T07:22:44.527Z,203
2022-09-05T07:22:58.332Z,203
2022-09-05T07:24:08.668Z,203
2022-09-05T07:24:55.216Z,203
2022-09-05T07:25:06.571Z,203
2022-09-05T07:25:37.402Z,203
2022-09-05T07:25:55.201Z,204
2022-09-05T07:26:53.546Z,203
2022-09-05T07:26:59.368Z,203
2022-09-05T07:27:31.112Z,203
2022-09-05T07:28:26.733Z,202
2022-09-05T07:28:35.535Z,200
2022-09-05T07:29:09.925Z,203
2022-09-05T07:29:34.643Z,27
2022-09-05T07:30:01.590Z,37
2022-09-05T07:30:26.581Z,18
2022-09-05T07:30:58.993Z,18
2022-09-05T07:31:38.084Z,18
2022-09-05T07:32:03.138Z,18
2022-09-05T07:32:36.442Z,18
2022-09-05T07:33:06.272Z,18
2022-09-05T07:33:35.779Z,18
2022-09-05T07:33:57.085Z,32
2022-09-05T07:34:27.069Z,32
2022-09-05T07:34:58.369Z,18
2022-09-05T07:35:41.714Z,34
2022-09-05T07:36:02.255Z,8
2022-09-05T07:36:36.584Z,33
2022-09-05T07:37:23.375Z,25
2022-09-05T07:37:41.569Z,29
2022-09-05T07:38:12.189Z,18
2022-09-05T07:38:52.376Z,24
2022-09-05T07:39:12.220Z,38
2022-09-05T07:39:31.416Z,5
2022-09-05T07:40:11.362Z,38
2022-09-05T07:40:35.479Z,59
2022-09-05T07:41:06.336Z,62
2022-09-05T07:41:36.669Z,62
2022-09-05T07:42:10.287Z,31
2022-09-05T07:42:34.427Z,353
2022-09-05T07:43:09.585Z,32
2022-09-05T07:43:31.424Z,32
2022-09-05T07:44:02.433Z,32
2022-09-05T07:44:34.378Z,56
2022-09-05T07:45:06.506Z,33
2022-09-05T07:45:34.691Z,4
2022-09-05T07:45:55.625Z,81
2022-09-05T07:46:26.814Z,39
2022-09-05T07:46:58.371Z,51
2022-09-05T07:47:31.016Z,51
2022-09-05T07:48:03.485Z,51
2022-09-05T07:48:35.816Z,50
2022-09-05T07:49:06.466Z,51
2022-09-05T07:49:35.445Z,51
2022-09-05T07:52:30.174Z,51
2022-09-05T07:57:20.796Z,27
2022-09-05T07:57:51.265Z,38
2022-09-05T07:58:10.209Z,62
2022-09-05T07:58:42.290Z,41
2022-09-05T07:59:14.181Z,15
2022-09-05T07:59:35.035Z,39
2022-09-05T08:00:25.601Z,26
2022-09-05T08:00:51.107Z,28
2022-09-05T08:01:22.255Z,345
2022-09-05T08:01:39.815Z,345
2022-09-05T08:02:11.300Z,347
2022-09-05T08:02:34.484Z,29
2022-09-05T08:02:58.646Z,10
2022-09-05T08:03:31.739Z,43
2022-09-05T08:04:05.535Z,14
2022-09-05T08:04:34.329Z,43
2022-09-05T08:05:06.582Z,35
2022-09-05T08:05:36.151Z,35
2022-09-05T08:05:55.249Z,35
2022-09-05T08:07:45.798Z,51
2022-09-05T08:08:05.191Z,63
2022-09-05T08:08:34.391Z,64
2022-09-05T08:09:59.530Z,63
2022-09-05T08:10:10.685Z,63
2022-09-05T08:11:03.028Z,63
2022-09-05T08:11:30.827Z,11
2022-09-05T08:12:09.373Z,51
2022-09-05T08:13:22.528Z,31
2022-09-05T08:13:34.435Z,21
2022-09-05T08:13:57.828Z,43
2022-09-05T08:14:58.898Z,91
2022-09-05T08:16:09.761Z,0
2022-09-05T08:16:20.158Z,18
2022-09-05T08:16:50.198Z,19
2022-09-05T08:17:26.447Z,57
2022-09-05T08:17:42.424Z,19
2022-09-05T08:18:10.224Z,37
2022-09-05T08:18:34.449Z,109
2022-09-05T08:18:58.248Z,84
2022-09-05T08:19:32.312Z,40
2022-09-05T08:20:08.329Z,55